sensor_id;sensor_type;location;lat;lon;timestamp;P1;durP1;ratioP1;P2;durP2;ratioP2
1174;SDS011;576;48.418;10.074;2022-11-13T00:00:22;5.13;;;4.30;;
1174;SDS011;576;48.418;10.074;2022-11-13T00:03:09;5.10;;;4.47;;
1174;SDS011;576;48.418;10.074;2022-11-13T00:05:58;6.63;;;4.20;;
1174;SDS011;576;48.418;10.074;2022-11-13T00:08:46;6.10;;;4.90;;
1174;SDS011;576;48.418;10.074;2022-11-13T00:11:32;15.20;;;5.10;;
1174;SDS011;576;48.418;10.074;2022-11-13T00:14:20;4.80;;;4.07;;
1174;SDS011;576;48.418;10.074;2022-11-13T00:17:07;4.80;;;4.30;;
1174;SDS011;576;48.418;10.074;2022-11-13T00:19:54;5.70;;;4.50;;
1174;SDS011;576;48.418;10.074;2022-11-13T00:22:41;4.20;;;3.80;;
1174;SDS011;576;48.418;10.074;2022-11-13T00:25:27;4.53;;;4.13;;
1174;SDS011;576;48.418;10.074;2022-11-13T00:28:14;6.20;;;5.13;;
1174;SDS011;576;48.418;10.074;2022-11-13T00:31:03;4.93;;;4.40;;
1174;SDS011;576;48.418;10.074;2022-11-13T00:33:50;4.63;;;4.23;;
1174;SDS011;576;48.418;10.074;2022-11-13T00:36:57;5.83;;;4.77;;
1174;SDS011;576;48.418;10.074;2022-11-13T00:39:44;4.80;;;4.40;;
1174;SDS011;576;48.418;10.074;2022-11-13T00:42:31;4.90;;;3.80;;
1174;SDS011;576;48.418;10.074;2022-11-13T00:45:18;4.17;;;3.77;;
1174;SDS011;576;48.418;10.074;2022-11-13T00:48:06;4.37;;;4.07;;
1174;SDS011;576;48.418;10.074;2022-11-13T00:50:52;4.83;;;4.43;;
1174;SDS011;576;48.418;10.074;2022-11-13T00:53:39;4.20;;;3.90;;
1174;SDS011;576;48.418;10.074;2022-11-13T00:56:26;4.50;;;4.10;;
1174;SDS011;576;48.418;10.074;2022-11-13T00:59:12;4.03;;;3.73;;
1174;SDS011;576;48.418;10.074;2022-11-13T01:01:59;4.60;;;4.30;;
1174;SDS011;576;48.418;10.074;2022-11-13T01:04:46;5.57;;;3.50;;
1174;SDS011;576;48.418;10.074;2022-11-13T01:07:34;4.43;;;4.03;;
1174;SDS011;576;48.418;10.074;2022-11-13T01:10:21;6.40;;;4.77;;
1174;SDS011;576;48.418;10.074;2022-11-13T01:13:09;3.93;;;3.63;;
1174;SDS011;576;48.418;10.074;2022-11-13T01:15:55;4.97;;;4.50;;
1174;SDS011;576;48.418;10.074;2022-11-13T01:18:43;4.30;;;4.00;;
1174;SDS011;576;48.418;10.074;2022-11-13T01:21:31;4.50;;;4.10;;
1174;SDS011;576;48.418;10.074;2022-11-13T01:24:18;4.53;;;4.13;;
1174;SDS011;576;48.418;10.074;2022-11-13T01:27:05;4.70;;;3.90;;
1174;SDS011;576;48.418;10.074;2022-11-13T01:29:51;5.60;;;4.90;;
1174;SDS011;576;48.418;10.074;2022-11-13T01:32:38;4.80;;;3.90;;
1174;SDS011;576;48.418;10.074;2022-11-13T01:35:24;4.20;;;3.90;;
1174;SDS011;576;48.418;10.074;2022-11-13T01:38:12;4.07;;;3.73;;
1174;SDS011;576;48.418;10.074;2022-11-13T01:40:59;4.40;;;4.10;;
1174;SDS011;576;48.418;10.074;2022-11-13T01:43:46;4.83;;;4.37;;
1174;SDS011;576;48.418;10.074;2022-11-13T01:46:33;5.00;;;4.60;;
1174;SDS011;576;48.418;10.074;2022-11-13T01:49:25;4.17;;;3.87;;
1174;SDS011;576;48.418;10.074;2022-11-13T01:52:16;4.60;;;4.13;;
1174;SDS011;576;48.418;10.074;2022-11-13T01:55:08;3.83;;;3.53;;
1174;SDS011;576;48.418;10.074;2022-11-13T01:57:57;3.77;;;3.47;;
1174;SDS011;576;48.418;10.074;2022-11-13T02:00:45;5.90;;;4.30;;
1174;SDS011;576;48.418;10.074;2022-11-13T02:03:34;4.63;;;4.23;;
1174;SDS011;576;48.418;10.074;2022-11-13T02:06:21;3.90;;;3.50;;
1174;SDS011;576;48.418;10.074;2022-11-13T02:09:07;4.67;;;4.30;;
1174;SDS011;576;48.418;10.074;2022-11-13T02:11:57;4.83;;;4.17;;
1174;SDS011;576;48.418;10.074;2022-11-13T02:14:45;3.93;;;3.63;;
1174;SDS011;576;48.418;10.074;2022-11-13T02:17:36;3.93;;;3.63;;
1174;SDS011;576;48.418;10.074;2022-11-13T02:20:29;3.77;;;3.47;;
1174;SDS011;576;48.418;10.074;2022-11-13T02:23:24;4.10;;;3.80;;
1174;SDS011;576;48.418;10.074;2022-11-13T02:26:19;4.43;;;4.10;;
1174;SDS011;576;48.418;10.074;2022-11-13T02:29:09;4.50;;;4.10;;
1174;SDS011;576;48.418;10.074;2022-11-13T02:31:56;4.30;;;3.90;;
1174;SDS011;576;48.418;10.074;2022-11-13T02:34:42;4.80;;;4.20;;
1174;SDS011;576;48.418;10.074;2022-11-13T02:37:29;4.37;;;3.97;;
1174;SDS011;576;48.418;10.074;2022-11-13T02:40:15;4.10;;;3.80;;
1174;SDS011;576;48.418;10.074;2022-11-13T02:43:04;4.30;;;3.90;;
1174;SDS011;576;48.418;10.074;2022-11-13T02:45:51;4.03;;;3.70;;
1174;SDS011;576;48.418;10.074;2022-11-13T02:48:38;4.70;;;4.03;;
1174;SDS011;576;48.418;10.074;2022-11-13T02:51:24;4.73;;;4.33;;
1174;SDS011;576;48.418;10.074;2022-11-13T02:54:11;4.03;;;3.70;;
1174;SDS011;576;48.418;10.074;2022-11-13T02:57:00;4.40;;;4.00;;
1174;SDS011;576;48.418;10.074;2022-11-13T02:59:48;3.87;;;3.57;;
1174;SDS011;576;48.418;10.074;2022-11-13T03:02:35;4.37;;;4.00;;
1174;SDS011;576;48.418;10.074;2022-11-13T03:05:22;3.97;;;3.63;;
1174;SDS011;576;48.418;10.074;2022-11-13T03:08:08;5.07;;;4.57;;
1174;SDS011;576;48.418;10.074;2022-11-13T03:10:55;3.70;;;3.47;;
1174;SDS011;576;48.418;10.074;2022-11-13T03:13:41;7.57;;;4.30;;
1174;SDS011;576;48.418;10.074;2022-11-13T03:16:30;3.50;;;3.30;;
1174;SDS011;576;48.418;10.074;2022-11-13T03:19:16;3.93;;;3.63;;
1174;SDS011;576;48.418;10.074;2022-11-13T03:22:03;4.00;;;3.70;;
1174;SDS011;576;48.418;10.074;2022-11-13T03:24:50;4.67;;;4.33;;
1174;SDS011;576;48.418;10.074;2022-11-13T03:27:36;4.07;;;3.77;;
1174;SDS011;576;48.418;10.074;2022-11-13T03:30:25;4.80;;;4.40;;
1174;SDS011;576;48.418;10.074;2022-11-13T03:33:14;4.70;;;4.10;;
1174;SDS011;576;48.418;10.074;2022-11-13T03:36:01;4.80;;;4.40;;
1174;SDS011;576;48.418;10.074;2022-11-13T03:38:48;5.07;;;4.63;;
1174;SDS011;576;48.418;10.074;2022-11-13T03:41:34;4.40;;;4.00;;
1174;SDS011;576;48.418;10.074;2022-11-13T03:44:20;4.33;;;4.00;;
1174;SDS011;576;48.418;10.074;2022-11-13T03:47:07;4.50;;;4.10;;
1174;SDS011;576;48.418;10.074;2022-11-13T03:49:55;5.00;;;4.60;;
1174;SDS011;576;48.418;10.074;2022-11-13T03:52:42;4.40;;;4.00;;
1174;SDS011;576;48.418;10.074;2022-11-13T03:55:28;4.30;;;3.90;;
1174;SDS011;576;48.418;10.074;2022-11-13T03:58:15;4.20;;;3.80;;
1174;SDS011;576;48.418;10.074;2022-11-13T04:01:03;4.50;;;4.20;;
1174;SDS011;576;48.418;10.074;2022-11-13T04:03:49;4.90;;;4.50;;
1174;SDS011;576;48.418;10.074;2022-11-13T04:06:37;3.60;;;3.40;;
1174;SDS011;576;48.418;10.074;2022-11-13T04:09:24;4.10;;;3.70;;
1174;SDS011;576;48.418;10.074;2022-11-13T04:12:11;4.80;;;4.40;;
1174;SDS011;576;48.418;10.074;2022-11-13T04:14:58;4.37;;;4.07;;
1174;SDS011;576;48.418;10.074;2022-11-13T04:17:44;5.00;;;4.50;;
1174;SDS011;576;48.418;10.074;2022-11-13T04:20:31;4.20;;;3.90;;
1174;SDS011;576;48.418;10.074;2022-11-13T04:23:19;4.30;;;3.90;;
1174;SDS011;576;48.418;10.074;2022-11-13T04:26:05;4.40;;;4.00;;
1174;SDS011;576;48.418;10.074;2022-11-13T04:28:52;4.43;;;4.03;;
1174;SDS011;576;48.418;10.074;2022-11-13T04:31:38;3.83;;;3.53;;
1174;SDS011;576;48.418;10.074;2022-11-13T04:34:25;4.23;;;3.93;;
1174;SDS011;576;48.418;10.074;2022-11-13T04:37:11;4.80;;;4.40;;
1174;SDS011;576;48.418;10.074;2022-11-13T04:39:59;3.83;;;3.53;;
1174;SDS011;576;48.418;10.074;2022-11-13T04:42:46;4.70;;;4.30;;
1174;SDS011;576;48.418;10.074;2022-11-13T04:45:35;4.60;;;4.23;;
1174;SDS011;576;48.418;10.074;2022-11-13T04:48:21;4.00;;;3.57;;
1174;SDS011;576;48.418;10.074;2022-11-13T04:51:08;4.13;;;3.83;;
1174;SDS011;576;48.418;10.074;2022-11-13T04:53:54;4.07;;;3.77;;
1174;SDS011;576;48.418;10.074;2022-11-13T04:56:42;4.63;;;4.23;;
1174;SDS011;576;48.418;10.074;2022-11-13T04:59:29;4.10;;;3.80;;
1174;SDS011;576;48.418;10.074;2022-11-13T05:02:15;3.63;;;3.40;;
1174;SDS011;576;48.418;10.074;2022-11-13T05:05:02;4.30;;;4.00;;
1174;SDS011;576;48.418;10.074;2022-11-13T05:07:49;4.20;;;3.90;;
1174;SDS011;576;48.418;10.074;2022-11-13T05:10:37;3.90;;;3.50;;
1174;SDS011;576;48.418;10.074;2022-11-13T05:13:25;4.33;;;4.03;;
1174;SDS011;576;48.418;10.074;2022-11-13T05:16:12;4.67;;;4.27;;
1174;SDS011;576;48.418;10.074;2022-11-13T05:19:00;3.27;;;3.07;;
1174;SDS011;576;48.418;10.074;2022-11-13T05:21:50;4.00;;;3.70;;
1174;SDS011;576;48.418;10.074;2022-11-13T05:24:37;3.80;;;3.50;;
1174;SDS011;576;48.418;10.074;2022-11-13T05:27:24;3.97;;;3.67;;
1174;SDS011;576;48.418;10.074;2022-11-13T05:30:11;4.17;;;3.73;;
1174;SDS011;576;48.418;10.074;2022-11-13T05:32:58;4.10;;;3.80;;
1174;SDS011;576;48.418;10.074;2022-11-13T05:35:44;3.87;;;3.57;;
1174;SDS011;576;48.418;10.074;2022-11-13T05:38:31;4.37;;;4.07;;
1174;SDS011;576;48.418;10.074;2022-11-13T05:41:18;3.57;;;3.20;;
1174;SDS011;576;48.418;10.074;2022-11-13T05:44:06;4.77;;;4.43;;
1174;SDS011;576;48.418;10.074;2022-11-13T05:46:54;4.03;;;3.73;;
1174;SDS011;576;48.418;10.074;2022-11-13T05:49:41;4.10;;;3.80;;
1174;SDS011;576;48.418;10.074;2022-11-13T05:52:27;3.90;;;3.57;;
1174;SDS011;576;48.418;10.074;2022-11-13T05:55:14;3.80;;;3.50;;
1174;SDS011;576;48.418;10.074;2022-11-13T05:58:06;4.10;;;3.80;;
1174;SDS011;576;48.418;10.074;2022-11-13T06:00:52;3.90;;;3.60;;
1174;SDS011;576;48.418;10.074;2022-11-13T06:03:41;3.43;;;3.23;;
1174;SDS011;576;48.418;10.074;2022-11-13T06:06:29;4.10;;;3.80;;
1174;SDS011;576;48.418;10.074;2022-11-13T06:09:16;3.80;;;3.50;;
1174;SDS011;576;48.418;10.074;2022-11-13T06:12:03;4.17;;;3.80;;
1174;SDS011;576;48.418;10.074;2022-11-13T06:14:50;3.37;;;3.17;;
1174;SDS011;576;48.418;10.074;2022-11-13T06:17:37;3.90;;;3.60;;
1174;SDS011;576;48.418;10.074;2022-11-13T06:20:25;3.53;;;3.30;;
1174;SDS011;576;48.418;10.074;2022-11-13T06:23:11;3.80;;;3.50;;
1174;SDS011;576;48.418;10.074;2022-11-13T06:25:59;3.90;;;3.70;;
1174;SDS011;576;48.418;10.074;2022-11-13T06:28:46;3.67;;;3.37;;
1174;SDS011;576;48.418;10.074;2022-11-13T06:31:34;3.43;;;3.13;;
1174;SDS011;576;48.418;10.074;2022-11-13T06:34:21;4.07;;;3.67;;
1174;SDS011;576;48.418;10.074;2022-11-13T06:37:09;3.03;;;2.83;;
1174;SDS011;576;48.418;10.074;2022-11-13T06:39:56;3.30;;;3.10;;
1174;SDS011;576;48.418;10.074;2022-11-13T06:42:43;3.50;;;3.23;;
1174;SDS011;576;48.418;10.074;2022-11-13T06:45:29;3.63;;;3.43;;
1174;SDS011;576;48.418;10.074;2022-11-13T06:48:15;3.77;;;3.53;;
1174;SDS011;576;48.418;10.074;2022-11-13T06:51:03;3.33;;;3.13;;
1174;SDS011;576;48.418;10.074;2022-11-13T06:53:53;4.07;;;3.67;;
1174;SDS011;576;48.418;10.074;2022-11-13T06:56:43;3.50;;;3.20;;
1174;SDS011;576;48.418;10.074;2022-11-13T06:59:29;3.43;;;3.13;;
1174;SDS011;576;48.418;10.074;2022-11-13T07:02:15;3.67;;;3.47;;
1174;SDS011;576;48.418;10.074;2022-11-13T07:05:02;3.50;;;3.30;;
1174;SDS011;576;48.418;10.074;2022-11-13T07:07:50;3.00;;;2.83;;
1174;SDS011;576;48.418;10.074;2022-11-13T07:10:38;3.33;;;3.13;;
1174;SDS011;576;48.418;10.074;2022-11-13T07:13:25;3.23;;;3.03;;
1174;SDS011;576;48.418;10.074;2022-11-13T07:16:13;4.93;;;3.10;;
1174;SDS011;576;48.418;10.074;2022-11-13T07:19:02;3.77;;;3.40;;
1174;SDS011;576;48.418;10.074;2022-11-13T07:21:49;2.90;;;2.70;;
1174;SDS011;576;48.418;10.074;2022-11-13T07:24:36;3.60;;;3.30;;
1174;SDS011;576;48.418;10.074;2022-11-13T07:27:24;3.17;;;2.97;;
1174;SDS011;576;48.418;10.074;2022-11-13T07:30:11;3.80;;;3.50;;
1174;SDS011;576;48.418;10.074;2022-11-13T07:33:00;3.70;;;3.33;;
1174;SDS011;576;48.418;10.074;2022-11-13T07:35:47;3.30;;;3.10;;
1174;SDS011;576;48.418;10.074;2022-11-13T07:38:33;3.23;;;3.00;;
1174;SDS011;576;48.418;10.074;2022-11-13T07:41:20;3.80;;;3.50;;
1174;SDS011;576;48.418;10.074;2022-11-13T07:44:08;3.23;;;3.03;;
1174;SDS011;576;48.418;10.074;2022-11-13T07:47:11;3.17;;;2.97;;
1174;SDS011;576;48.418;10.074;2022-11-13T07:49:57;4.00;;;3.17;;
1174;SDS011;576;48.418;10.074;2022-11-13T07:52:54;3.10;;;2.90;;
1174;SDS011;576;48.418;10.074;2022-11-13T07:55:41;3.50;;;3.30;;
1174;SDS011;576;48.418;10.074;2022-11-13T07:58:28;2.90;;;2.70;;
1174;SDS011;576;48.418;10.074;2022-11-13T08:01:16;3.00;;;2.80;;
1174;SDS011;576;48.418;10.074;2022-11-13T08:04:03;3.97;;;3.67;;
1174;SDS011;576;48.418;10.074;2022-11-13T08:06:49;3.77;;;3.37;;
1174;SDS011;576;48.418;10.074;2022-11-13T08:09:36;3.53;;;3.23;;
1174;SDS011;576;48.418;10.074;2022-11-13T08:12:23;4.07;;;3.70;;
1174;SDS011;576;48.418;10.074;2022-11-13T08:15:10;4.10;;;3.40;;
1174;SDS011;576;48.418;10.074;2022-11-13T08:18:00;5.33;;;2.83;;
1174;SDS011;576;48.418;10.074;2022-11-13T08:20:48;4.10;;;3.70;;
1174;SDS011;576;48.418;10.074;2022-11-13T08:23:34;3.50;;;3.20;;
1174;SDS011;576;48.418;10.074;2022-11-13T08:26:21;3.73;;;3.30;;
1174;SDS011;576;48.418;10.074;2022-11-13T08:29:08;4.00;;;3.40;;
1174;SDS011;576;48.418;10.074;2022-11-13T08:31:55;3.00;;;2.80;;
1174;SDS011;576;48.418;10.074;2022-11-13T08:34:43;8.93;;;4.07;;
1174;SDS011;576;48.418;10.074;2022-11-13T08:37:31;4.13;;;3.77;;
1174;SDS011;576;48.418;10.074;2022-11-13T08:40:17;5.07;;;3.23;;
1174;SDS011;576;48.418;10.074;2022-11-13T08:43:04;5.50;;;4.07;;
1174;SDS011;576;48.418;10.074;2022-11-13T08:45:51;4.90;;;4.10;;
1174;SDS011;576;48.418;10.074;2022-11-13T08:48:38;5.47;;;4.33;;
1174;SDS011;576;48.418;10.074;2022-11-13T08:51:26;4.57;;;4.17;;
1174;SDS011;576;48.418;10.074;2022-11-13T08:54:12;4.33;;;3.93;;
1174;SDS011;576;48.418;10.074;2022-11-13T08:56:59;5.70;;;4.17;;
1174;SDS011;576;48.418;10.074;2022-11-13T08:59:50;7.33;;;4.10;;
1174;SDS011;576;48.418;10.074;2022-11-13T09:02:36;10.40;;;5.47;;
1174;SDS011;576;48.418;10.074;2022-11-13T09:05:23;5.60;;;4.23;;
1174;SDS011;576;48.418;10.074;2022-11-13T09:08:11;5.47;;;4.37;;
1174;SDS011;576;48.418;10.074;2022-11-13T09:11:01;6.10;;;4.70;;
1174;SDS011;576;48.418;10.074;2022-11-13T09:13:48;4.90;;;4.43;;
1174;SDS011;576;48.418;10.074;2022-11-13T09:16:37;5.60;;;4.10;;
1174;SDS011;576;48.418;10.074;2022-11-13T09:19:24;6.67;;;4.43;;
1174;SDS011;576;48.418;10.074;2022-11-13T09:22:11;6.60;;;4.93;;
1174;SDS011;576;48.418;10.074;2022-11-13T09:24:59;6.30;;;4.57;;
1174;SDS011;576;48.418;10.074;2022-11-13T09:27:50;4.70;;;3.97;;
1174;SDS011;576;48.418;10.074;2022-11-13T09:30:38;5.80;;;4.40;;
1174;SDS011;576;48.418;10.074;2022-11-13T09:33:25;5.30;;;4.83;;
1174;SDS011;576;48.418;10.074;2022-11-13T09:36:12;5.40;;;5.00;;
1174;SDS011;576;48.418;10.074;2022-11-13T09:38:59;5.23;;;4.73;;
1174;SDS011;576;48.418;10.074;2022-11-13T09:41:49;5.30;;;4.70;;
1174;SDS011;576;48.418;10.074;2022-11-13T09:44:39;5.47;;;4.00;;
1174;SDS011;576;48.418;10.074;2022-11-13T09:47:31;5.20;;;4.80;;
1174;SDS011;576;48.418;10.074;2022-11-13T09:50:22;9.37;;;6.00;;
1174;SDS011;576;48.418;10.074;2022-11-13T09:53:11;6.87;;;5.70;;
1174;SDS011;576;48.418;10.074;2022-11-13T09:56:00;6.93;;;6.20;;
1174;SDS011;576;48.418;10.074;2022-11-13T09:58:58;7.50;;;6.00;;
1174;SDS011;576;48.418;10.074;2022-11-13T10:01:52;9.93;;;7.50;;
1174;SDS011;576;48.418;10.074;2022-11-13T10:04:52;6.53;;;5.60;;
1174;SDS011;576;48.418;10.074;2022-11-13T10:07:46;10.57;;;6.70;;
1174;SDS011;576;48.418;10.074;2022-11-13T10:10:43;6.77;;;6.17;;
1174;SDS011;576;48.418;10.074;2022-11-13T10:13:41;5.80;;;5.30;;
1174;SDS011;576;48.418;10.074;2022-11-13T10:16:32;5.77;;;5.17;;
1174;SDS011;576;48.418;10.074;2022-11-13T10:19:23;6.07;;;5.47;;
1174;SDS011;576;48.418;10.074;2022-11-13T10:22:14;5.43;;;5.03;;
1174;SDS011;576;48.418;10.074;2022-11-13T10:25:21;6.33;;;5.43;;
1174;SDS011;576;48.418;10.074;2022-11-13T10:28:11;6.67;;;5.60;;
1174;SDS011;576;48.418;10.074;2022-11-13T10:31:21;6.10;;;5.20;;
1174;SDS011;576;48.418;10.074;2022-11-13T10:34:08;8.57;;;5.47;;
1174;SDS011;576;48.418;10.074;2022-11-13T10:37:01;6.00;;;5.40;;
1174;SDS011;576;48.418;10.074;2022-11-13T10:40:02;8.43;;;6.30;;
1174;SDS011;576;48.418;10.074;2022-11-13T10:42:49;5.10;;;4.70;;
1174;SDS011;576;48.418;10.074;2022-11-13T10:45:37;6.80;;;4.83;;
1174;SDS011;576;48.418;10.074;2022-11-13T10:48:26;4.57;;;4.17;;
1174;SDS011;576;48.418;10.074;2022-11-13T10:51:20;5.07;;;4.70;;
1174;SDS011;576;48.418;10.074;2022-11-13T10:54:19;6.67;;;5.30;;
1174;SDS011;576;48.418;10.074;2022-11-13T10:57:16;11.60;;;4.93;;
1174;SDS011;576;48.418;10.074;2022-11-13T11:00:21;5.27;;;4.77;;
1174;SDS011;576;48.418;10.074;2022-11-13T11:03:13;6.23;;;5.23;;
1174;SDS011;576;48.418;10.074;2022-11-13T11:06:02;11.60;;;5.30;;
1174;SDS011;576;48.418;10.074;2022-11-13T11:08:51;10.70;;;6.50;;
1174;SDS011;576;48.418;10.074;2022-11-13T11:11:38;6.17;;;5.50;;
1174;SDS011;576;48.418;10.074;2022-11-13T11:15:01;6.17;;;5.57;;
1174;SDS011;576;48.418;10.074;2022-11-13T11:17:56;5.80;;;5.10;;
1174;SDS011;576;48.418;10.074;2022-11-13T11:20:46;6.20;;;5.60;;
1174;SDS011;576;48.418;10.074;2022-11-13T11:23:36;6.40;;;5.80;;
1174;SDS011;576;48.418;10.074;2022-11-13T11:26:30;5.70;;;5.30;;
1174;SDS011;576;48.418;10.074;2022-11-13T11:29:24;6.07;;;5.53;;
1174;SDS011;576;48.418;10.074;2022-11-13T11:32:16;5.83;;;5.33;;
1174;SDS011;576;48.418;10.074;2022-11-13T11:35:11;6.13;;;5.70;;
1174;SDS011;576;48.418;10.074;2022-11-13T11:38:02;6.93;;;6.23;;
1174;SDS011;576;48.418;10.074;2022-11-13T11:40:55;6.03;;;5.43;;
1174;SDS011;576;48.418;10.074;2022-11-13T11:43:52;5.93;;;5.47;;
1174;SDS011;576;48.418;10.074;2022-11-13T11:46:45;6.50;;;5.73;;
1174;SDS011;576;48.418;10.074;2022-11-13T11:49:32;6.00;;;5.50;;
1174;SDS011;576;48.418;10.074;2022-11-13T11:52:32;5.60;;;5.10;;
1174;SDS011;576;48.418;10.074;2022-11-13T11:55:39;5.70;;;5.00;;
1174;SDS011;576;48.418;10.074;2022-11-13T11:59:00;5.90;;;5.50;;
1174;SDS011;576;48.418;10.074;2022-11-13T12:05:18;5.90;;;5.50;;
1174;SDS011;576;48.418;10.074;2022-11-13T12:08:10;5.70;;;5.30;;
1174;SDS011;576;48.418;10.074;2022-11-13T12:11:07;5.93;;;5.33;;
1174;SDS011;576;48.418;10.074;2022-11-13T12:14:03;5.40;;;4.90;;
1174;SDS011;576;48.418;10.074;2022-11-13T12:17:00;6.00;;;5.53;;
1174;SDS011;576;48.418;10.074;2022-11-13T12:20:02;5.50;;;5.20;;
1174;SDS011;576;48.418;10.074;2022-11-13T12:23:01;6.07;;;5.57;;
1174;SDS011;576;48.418;10.074;2022-11-13T12:25:59;5.93;;;5.53;;
1174;SDS011;576;48.418;10.074;2022-11-13T12:28:53;7.73;;;5.70;;
1174;SDS011;576;48.418;10.074;2022-11-13T12:31:55;6.40;;;5.90;;
1174;SDS011;576;48.418;10.074;2022-11-13T12:34:49;5.77;;;5.37;;
1174;SDS011;576;48.418;10.074;2022-11-13T12:37:41;5.63;;;5.13;;
1174;SDS011;576;48.418;10.074;2022-11-13T12:40:33;6.00;;;5.50;;
1174;SDS011;576;48.418;10.074;2022-11-13T12:43:34;5.80;;;5.20;;
1174;SDS011;576;48.418;10.074;2022-11-13T12:46:36;6.40;;;5.80;;
1174;SDS011;576;48.418;10.074;2022-11-13T12:49:27;5.97;;;5.37;;
1174;SDS011;576;48.418;10.074;2022-11-13T12:52:17;6.20;;;5.70;;
1174;SDS011;576;48.418;10.074;2022-11-13T12:55:22;7.20;;;5.03;;
1174;SDS011;576;48.418;10.074;2022-11-13T12:58:17;5.77;;;5.27;;
1174;SDS011;576;48.418;10.074;2022-11-13T13:01:12;5.00;;;4.60;;
1174;SDS011;576;48.418;10.074;2022-11-13T13:04:16;5.23;;;4.83;;
1174;SDS011;576;48.418;10.074;2022-11-13T13:07:23;4.40;;;4.10;;
1174;SDS011;576;48.418;10.074;2022-11-13T13:10:29;5.77;;;5.10;;
1174;SDS011;576;48.418;10.074;2022-11-13T13:13:23;5.97;;;5.37;;
1174;SDS011;576;48.418;10.074;2022-11-13T13:16:19;5.77;;;5.07;;
1174;SDS011;576;48.418;10.074;2022-11-13T13:19:22;5.17;;;4.77;;
1174;SDS011;576;48.418;10.074;2022-11-13T13:22:23;5.40;;;5.00;;
1174;SDS011;576;48.418;10.074;2022-11-13T13:25:22;5.73;;;4.77;;
1174;SDS011;576;48.418;10.074;2022-11-13T13:28:15;5.30;;;4.90;;
1174;SDS011;576;48.418;10.074;2022-11-13T13:31:07;5.67;;;5.17;;
1174;SDS011;576;48.418;10.074;2022-11-13T13:34:07;5.50;;;5.10;;
1174;SDS011;576;48.418;10.074;2022-11-13T13:37:09;4.30;;;4.00;;
1174;SDS011;576;48.418;10.074;2022-11-13T13:40:14;5.60;;;5.10;;
1174;SDS011;576;48.418;10.074;2022-11-13T13:43:15;5.07;;;4.57;;
1174;SDS011;576;48.418;10.074;2022-11-13T13:46:13;5.47;;;5.10;;
1174;SDS011;576;48.418;10.074;2022-11-13T13:49:02;4.87;;;4.50;;
1174;SDS011;576;48.418;10.074;2022-11-13T13:51:53;4.10;;;3.80;;
1174;SDS011;576;48.418;10.074;2022-11-13T13:54:43;4.43;;;4.13;;
1174;SDS011;576;48.418;10.074;2022-11-13T13:57:30;4.90;;;4.50;;
1174;SDS011;576;48.418;10.074;2022-11-13T14:00:18;4.27;;;4.00;;
1174;SDS011;576;48.418;10.074;2022-11-13T14:03:13;5.00;;;4.70;;
1174;SDS011;576;48.418;10.074;2022-11-13T14:06:07;4.80;;;4.47;;
1174;SDS011;576;48.418;10.074;2022-11-13T14:09:05;4.63;;;4.23;;
1174;SDS011;576;48.418;10.074;2022-11-13T14:11:58;4.30;;;4.00;;
1174;SDS011;576;48.418;10.074;2022-11-13T14:14:53;4.90;;;4.60;;
1174;SDS011;576;48.418;10.074;2022-11-13T14:17:40;4.50;;;4.20;;
1174;SDS011;576;48.418;10.074;2022-11-13T14:20:28;4.20;;;3.90;;
1174;SDS011;576;48.418;10.074;2022-11-13T14:23:20;4.23;;;3.93;;
1174;SDS011;576;48.418;10.074;2022-11-13T14:26:11;4.17;;;3.90;;
1174;SDS011;576;48.418;10.074;2022-11-13T14:29:00;4.57;;;4.27;;
1174;SDS011;576;48.418;10.074;2022-11-13T14:31:47;4.43;;;4.10;;
1174;SDS011;576;48.418;10.074;2022-11-13T14:34:35;4.90;;;4.50;;
1174;SDS011;576;48.418;10.074;2022-11-13T14:37:23;4.40;;;4.07;;
1174;SDS011;576;48.418;10.074;2022-11-13T14:40:13;4.13;;;3.83;;
1174;SDS011;576;48.418;10.074;2022-11-13T14:43:06;4.07;;;3.77;;
1174;SDS011;576;48.418;10.074;2022-11-13T14:46:03;4.20;;;3.90;;
1174;SDS011;576;48.418;10.074;2022-11-13T14:48:51;4.63;;;4.33;;
1174;SDS011;576;48.418;10.074;2022-11-13T14:51:39;4.53;;;4.23;;
1174;SDS011;576;48.418;10.074;2022-11-13T14:54:27;4.00;;;3.70;;
1174;SDS011;576;48.418;10.074;2022-11-13T14:57:45;4.20;;;3.90;;
1174;SDS011;576;48.418;10.074;2022-11-13T15:00:33;4.83;;;4.50;;
1174;SDS011;576;48.418;10.074;2022-11-13T15:03:22;4.50;;;4.20;;
1174;SDS011;576;48.418;10.074;2022-11-13T15:06:11;4.33;;;4.03;;
1174;SDS011;576;48.418;10.074;2022-11-13T15:09:00;4.00;;;3.80;;
1174;SDS011;576;48.418;10.074;2022-11-13T15:11:49;4.07;;;3.77;;
1174;SDS011;576;48.418;10.074;2022-11-13T15:14:36;4.27;;;3.93;;
1174;SDS011;576;48.418;10.074;2022-11-13T15:17:24;4.10;;;3.80;;
1174;SDS011;576;48.418;10.074;2022-11-13T15:20:16;4.13;;;3.93;;
1174;SDS011;576;48.418;10.074;2022-11-13T15:23:07;4.17;;;3.87;;
1174;SDS011;576;48.418;10.074;2022-11-13T15:25:56;4.10;;;3.90;;
1174;SDS011;576;48.418;10.074;2022-11-13T15:28:42;4.23;;;3.93;;
1174;SDS011;576;48.418;10.074;2022-11-13T15:31:29;3.93;;;3.63;;
1174;SDS011;576;48.418;10.074;2022-11-13T15:34:18;4.33;;;4.03;;
1174;SDS011;576;48.418;10.074;2022-11-13T15:37:10;4.03;;;3.73;;
1174;SDS011;576;48.418;10.074;2022-11-13T15:39:57;4.00;;;3.70;;
1174;SDS011;576;48.418;10.074;2022-11-13T15:42:44;4.07;;;3.77;;
1174;SDS011;576;48.418;10.074;2022-11-13T15:45:31;4.80;;;4.40;;
1174;SDS011;576;48.418;10.074;2022-11-13T15:48:21;4.73;;;4.40;;
1174;SDS011;576;48.418;10.074;2022-11-13T15:51:11;5.30;;;4.57;;
1174;SDS011;576;48.418;10.074;2022-11-13T15:54:04;6.40;;;5.00;;
1174;SDS011;576;48.418;10.074;2022-11-13T15:56:59;4.90;;;4.50;;
1174;SDS011;576;48.418;10.074;2022-11-13T15:59:45;6.40;;;5.00;;
1174;SDS011;576;48.418;10.074;2022-11-13T16:02:32;6.07;;;5.50;;
1174;SDS011;576;48.418;10.074;2022-11-13T16:05:19;5.30;;;4.90;;
1174;SDS011;576;48.418;10.074;2022-11-13T16:08:09;4.97;;;4.57;;
1174;SDS011;576;48.418;10.074;2022-11-13T16:10:59;5.63;;;5.13;;
1174;SDS011;576;48.418;10.074;2022-11-13T16:13:46;5.00;;;4.60;;
1174;SDS011;576;48.418;10.074;2022-11-13T16:16:33;5.13;;;4.50;;
1174;SDS011;576;48.418;10.074;2022-11-13T16:19:22;4.40;;;4.10;;
1174;SDS011;576;48.418;10.074;2022-11-13T16:22:11;5.03;;;4.53;;
1174;SDS011;576;48.418;10.074;2022-11-13T16:25:02;5.40;;;5.00;;
1174;SDS011;576;48.418;10.074;2022-11-13T16:27:51;7.47;;;4.53;;
1174;SDS011;576;48.418;10.074;2022-11-13T16:30:37;5.47;;;5.00;;
1174;SDS011;576;48.418;10.074;2022-11-13T16:33:24;5.43;;;4.90;;
1174;SDS011;576;48.418;10.074;2022-11-13T16:36:12;5.20;;;4.20;;
1174;SDS011;576;48.418;10.074;2022-11-13T16:39:00;6.87;;;5.87;;
1174;SDS011;576;48.418;10.074;2022-11-13T16:41:47;5.97;;;5.47;;
1174;SDS011;576;48.418;10.074;2022-11-13T16:44:35;9.37;;;5.30;;
1174;SDS011;576;48.418;10.074;2022-11-13T16:47:22;6.83;;;5.67;;
1174;SDS011;576;48.418;10.074;2022-11-13T16:50:14;6.03;;;5.53;;
1174;SDS011;576;48.418;10.074;2022-11-13T16:53:02;5.60;;;5.13;;
1174;SDS011;576;48.418;10.074;2022-11-13T16:55:49;7.63;;;6.23;;
1174;SDS011;576;48.418;10.074;2022-11-13T16:58:35;8.67;;;6.90;;
1174;SDS011;576;48.418;10.074;2022-11-13T17:01:23;6.93;;;6.30;;
1174;SDS011;576;48.418;10.074;2022-11-13T17:04:11;7.73;;;7.03;;
1174;SDS011;576;48.418;10.074;2022-11-13T17:06:58;6.50;;;5.90;;
1174;SDS011;576;48.418;10.074;2022-11-13T17:09:45;7.17;;;6.57;;
1174;SDS011;576;48.418;10.074;2022-11-13T17:12:52;7.40;;;6.80;;
1174;SDS011;576;48.418;10.074;2022-11-13T17:15:39;9.20;;;8.03;;
1174;SDS011;576;48.418;10.074;2022-11-13T17:18:27;7.90;;;7.17;;
1174;SDS011;576;48.418;10.074;2022-11-13T17:21:14;7.40;;;6.73;;
1174;SDS011;576;48.418;10.074;2022-11-13T17:24:02;9.60;;;8.13;;
1174;SDS011;576;48.418;10.074;2022-11-13T17:26:48;9.30;;;8.40;;
1174;SDS011;576;48.418;10.074;2022-11-13T17:29:35;8.17;;;7.40;;
1174;SDS011;576;48.418;10.074;2022-11-13T17:32:22;8.30;;;7.50;;
1174;SDS011;576;48.418;10.074;2022-11-13T17:35:11;8.37;;;7.57;;
1174;SDS011;576;48.418;10.074;2022-11-13T17:37:58;9.10;;;8.23;;